createdAt,value
2023-03-16T00:02:21.598Z,46.17
2023-03-16T00:04:49.025Z,50.53
2023-03-16T00:07:18.052Z,45.58
2023-03-16T00:09:45.696Z,45.57
2023-03-16T00:12:18.450Z,44.80
2023-03-16T00:14:49.705Z,46.40
2023-03-16T00:17:19.727Z,46.97
2023-03-16T00:19:55.439Z,36.53
2023-03-16T00:22:25.847Z,36.88
2023-03-16T00:24:54.067Z,38.22
2023-03-16T00:27:23.175Z,42.97
2023-03-16T00:29:56.260Z,38.63
2023-03-16T00:32:30.433Z,39.20
2023-03-16T00:34:58.753Z,36.20
2023-03-16T00:37:27.429Z,42.50
2023-03-16T00:39:56.475Z,39.33
2023-03-16T00:42:30.078Z,38.10
2023-03-16T00:45:01.845Z,32.65
2023-03-16T00:47:31.849Z,28.67
2023-03-16T00:50:01.198Z,45.22
2023-03-16T00:54:58.521Z,43.55
2023-03-16T00:57:30.233Z,39.33
2023-03-16T00:59:59.371Z,34.33
2023-03-16T01:02:28.591Z,43.92
2023-03-16T01:04:56.204Z,44.08
2023-03-16T01:07:23.839Z,44.65
2023-03-16T01:09:51.908Z,51.05
2023-03-16T01:12:20.490Z,38.70
2023-03-16T01:14:48.233Z,40.20
2023-03-16T01:17:17.463Z,48.40
2023-03-16T01:19:46.355Z,38.38
2023-03-16T01:22:15.716Z,33.92
2023-03-16T01:24:47.174Z,33.33
2023-03-16T01:27:15.130Z,37.55
2023-03-16T01:29:43.850Z,34.88
2023-03-16T01:32:13.144Z,33.08
2023-03-16T01:34:42.265Z,32.40
2023-03-16T01:37:12.182Z,40.40
2023-03-16T01:39:57.548Z,29.80
2023-03-16T01:42:25.192Z,36.05
2023-03-16T01:45:01.779Z,29.00
2023-03-16T01:47:39.201Z,33.95
2023-03-16T01:50:13.028Z,33.20
2023-03-16T01:55:13.934Z,32.17
2023-03-16T01:57:46.528Z,32.72
2023-03-16T02:00:21.123Z,30.73
2023-03-16T02:03:10.158Z,36.65
2023-03-16T02:05:59.656Z,34.47
2023-03-16T02:08:29.287Z,30.27
2023-03-16T02:10:57.468Z,34.75
2023-03-16T02:13:36.851Z,29.20
2023-03-16T02:16:07.257Z,31.33
2023-03-16T02:18:36.311Z,35.75
2023-03-16T02:21:16.555Z,27.40
2023-03-16T02:23:44.766Z,31.50
2023-03-16T02:26:23.011Z,26.70
2023-03-16T02:29:25.869Z,31.88
2023-03-16T02:31:55.508Z,31.45
2023-03-16T02:34:23.841Z,29.58
2023-03-16T02:36:54.051Z,25.73
2023-03-16T02:39:25.618Z,29.15
2023-03-16T02:41:53.398Z,27.67
2023-03-16T02:44:25.368Z,29.27
2023-03-16T02:47:00.199Z,26.27
2023-03-16T02:49:34.606Z,28.08
2023-03-16T02:52:03.753Z,29.70
2023-03-16T02:54:32.372Z,31.77
2023-03-16T02:56:59.991Z,32.75
2023-03-16T03:01:58.719Z,32.37
2023-03-16T03:04:26.520Z,29.58
2023-03-16T03:06:54.080Z,36.83
2023-03-16T03:09:21.772Z,30.83
2023-03-16T03:11:53.504Z,31.80
2023-03-16T03:14:25.477Z,27.23
2023-03-16T03:16:53.366Z,28.23
2023-03-16T03:19:20.919Z,26.65
2023-03-16T03:21:57.011Z,29.40
2023-03-16T03:24:24.790Z,30.23
2023-03-16T03:26:52.312Z,34.20
2023-03-16T03:29:21.666Z,32.85
2023-03-16T03:31:49.357Z,28.92
2023-03-16T03:34:24.159Z,32.60
2023-03-16T03:36:53.776Z,27.30
2023-03-16T03:39:21.635Z,33.28
2023-03-16T03:41:54.696Z,31.58
2023-03-16T03:44:24.440Z,31.35
2023-03-16T03:46:52.594Z,31.23
2023-03-16T03:49:20.814Z,32.13
2023-03-16T03:51:50.490Z,28.10
2023-03-16T03:54:25.318Z,31.63
2023-03-16T03:56:57.249Z,35.45
2023-03-16T03:59:25.061Z,29.98
2023-03-16T04:02:16.291Z,36.13
2023-03-16T04:04:56.136Z,31.92
2023-03-16T04:07:23.798Z,28.42
2023-03-16T04:09:54.973Z,30.60
2023-03-16T04:12:46.874Z,28.80
2023-03-16T04:15:15.474Z,30.33
2023-03-16T04:18:18.561Z,33.78
2023-03-16T04:20:46.836Z,30.58
2023-03-16T04:23:18.419Z,31.95
2023-03-16T04:25:49.603Z,35.00
2023-03-16T04:28:21.194Z,37.90
2023-03-16T04:30:55.482Z,38.03
2023-03-16T04:33:29.176Z,26.95
2023-03-16T04:35:57.859Z,31.10
2023-03-16T04:38:26.158Z,35.93
2023-03-16T04:41:04.388Z,30.65
2023-03-16T04:43:38.601Z,37.95
2023-03-16T04:46:16.843Z,31.45
2023-03-16T04:48:44.730Z,30.85
2023-03-16T04:51:12.548Z,35.85
2023-03-16T04:53:46.969Z,32.63
2023-03-16T04:56:24.306Z,34.78
2023-03-16T04:58:57.793Z,32.50
2023-03-16T05:01:31.112Z,27.23
2023-03-16T05:04:02.633Z,39.10
2023-03-16T05:06:33.421Z,36.95
2023-03-16T05:09:05.894Z,38.53
2023-03-16T05:11:36.653Z,34.10
2023-03-16T05:14:10.866Z,29.33
2023-03-16T05:16:52.741Z,38.25
2023-03-16T05:19:21.755Z,34.67
2023-03-16T05:21:49.977Z,32.75
2023-03-16T05:24:18.316Z,36.47
2023-03-16T05:26:46.104Z,40.65
2023-03-16T05:29:16.820Z,41.67
2023-03-16T05:31:47.838Z,40.72
2023-03-16T05:34:21.109Z,32.28
2023-03-16T05:36:49.045Z,32.05
2023-03-16T05:39:18.151Z,31.70
2023-03-16T05:41:48.811Z,33.70
2023-03-16T05:44:16.349Z,30.42
2023-03-16T05:47:07.183Z,32.47
2023-03-16T05:49:39.606Z,30.48
2023-03-16T05:52:13.949Z,36.28
2023-03-16T05:54:43.078Z,29.02
2023-03-16T05:57:11.445Z,38.30
2023-03-16T05:59:42.423Z,37.17
2023-03-16T06:02:11.659Z,43.72
2023-03-16T06:04:39.208Z,38.88
2023-03-16T06:07:07.516Z,46.92
2023-03-16T06:09:41.517Z,40.65
2023-03-16T06:12:14.780Z,48.33
2023-03-16T06:14:43.663Z,52.67
2023-03-16T06:17:14.325Z,53.42
2023-03-16T06:19:43.008Z,51.53
2023-03-16T06:22:11.054Z,46.90
2023-03-16T06:24:45.717Z,44.58
2023-03-16T06:27:14.779Z,34.38
2023-03-16T06:30:12.247Z,38.92
2023-03-16T06:32:45.451Z,35.00
2023-03-16T06:35:13.350Z,37.20
2023-03-16T06:37:49.072Z,39.40
2023-03-16T06:40:35.634Z,37.28
2023-03-16T06:43:07.981Z,36.90
2023-03-16T06:45:36.293Z,40.55
2023-03-16T06:48:04.268Z,32.22
2023-03-16T06:50:32.759Z,34.43
2023-03-16T06:53:01.161Z,35.15
2023-03-16T06:55:32.793Z,36.72
2023-03-16T06:58:01.730Z,40.28
2023-03-16T07:00:30.857Z,38.90
2023-03-16T07:03:00.458Z,43.08
2023-03-16T07:05:29.909Z,37.92
2023-03-16T07:08:02.702Z,45.08
2023-03-16T07:10:32.121Z,40.42
2023-03-16T07:13:00.021Z,41.35
2023-03-16T07:15:27.757Z,53.10
2023-03-16T07:17:58.203Z,43.25
2023-03-16T07:20:28.802Z,47.08
2023-03-16T07:22:57.038Z,46.13
2023-03-16T07:25:24.888Z,44.95
2023-03-16T07:27:54.927Z,45.50
2023-03-16T07:30:29.549Z,41.28
2023-03-16T07:32:57.688Z,51.88
2023-03-16T07:35:27.152Z,47.70
2023-03-16T07:37:55.874Z,42.67
2023-03-16T07:40:27.072Z,49.85
2023-03-16T07:43:00.840Z,49.03
2023-03-16T07:45:36.066Z,53.95
2023-03-16T07:48:07.788Z,55.15
2023-03-16T07:50:57.608Z,55.15
2023-03-16T07:53:25.741Z,57.80
2023-03-16T07:58:36.028Z,63.55
2023-03-16T08:01:04.233Z,61.83
2023-03-16T08:03:32.227Z,58.83
2023-03-16T08:06:05.614Z,57.58
2023-03-16T08:08:34.348Z,57.80
2023-03-16T08:11:02.221Z,59.17
2023-03-16T08:13:44.078Z,71.82
2023-03-16T08:16:13.636Z,66.63
2023-03-16T08:18:44.637Z,57.72
2023-03-16T08:23:44.120Z,62.25
2023-03-16T08:26:20.008Z,62.38
2023-03-16T08:28:54.429Z,57.30
2023-03-16T08:31:25.403Z,61.20
2023-03-16T08:34:04.525Z,57.85
2023-03-16T08:36:37.417Z,51.33
2023-03-16T08:39:07.583Z,59.92
2023-03-16T08:41:44.008Z,61.13
2023-03-16T08:44:23.886Z,58.72
2023-03-16T08:46:52.086Z,59.90
2023-03-16T08:49:21.242Z,60.60
2023-03-16T08:51:58.020Z,59.58
2023-03-16T08:54:25.705Z,57.03
2023-03-16T08:56:57.497Z,59.25
2023-03-16T08:59:30.262Z,56.28
2023-03-16T09:01:58.797Z,56.92
2023-03-16T09:04:28.461Z,56.20
2023-03-16T09:09:36.728Z,60.25
2023-03-16T09:12:06.164Z,56.05
2023-03-16T09:14:33.744Z,57.28
2023-03-16T09:17:07.881Z,65.20
2023-03-16T09:19:53.187Z,57.22
2023-03-16T09:22:22.170Z,61.53
2023-03-16T09:24:51.406Z,64.18
2023-03-16T09:27:20.794Z,68.53
2023-03-16T09:29:53.036Z,60.63
2023-03-16T09:32:21.093Z,67.13
2023-03-16T09:34:48.712Z,63.55
2023-03-16T09:37:44.525Z,66.00
2023-03-16T09:40:26.738Z,57.72
2023-03-16T09:43:03.084Z,55.47
2023-03-16T09:45:35.955Z,53.22
2023-03-16T09:48:05.799Z,51.60
2023-03-16T09:50:47.681Z,45.05
2023-03-16T09:53:32.059Z,47.67
2023-03-16T09:56:06.155Z,52.97
2023-03-16T09:58:34.304Z,52.97
2023-03-16T10:01:38.892Z,56.45
2023-03-16T10:04:13.351Z,57.35
2023-03-16T10:07:03.014Z,53.08
2023-03-16T10:09:41.821Z,52.33
2023-03-16T10:12:16.374Z,56.13
2023-03-16T10:14:47.563Z,54.13
2023-03-16T10:17:24.443Z,56.25
2023-03-16T10:19:58.199Z,48.38
2023-03-16T10:22:31.949Z,50.95
2023-03-16T10:25:14.097Z,51.80
2023-03-16T10:27:45.248Z,51.47
2023-03-16T10:30:31.204Z,60.28
2023-03-16T10:33:05.647Z,54.83
2023-03-16T10:35:55.792Z,54.47
2023-03-16T10:38:27.743Z,51.67
2023-03-16T10:40:57.935Z,52.38
2023-03-16T10:43:26.599Z,52.55
2023-03-16T10:46:00.548Z,52.97
2023-03-16T10:48:31.086Z,52.53
2023-03-16T10:51:12.187Z,54.28
2023-03-16T10:53:44.268Z,52.75
2023-03-16T10:56:23.939Z,46.92
2023-03-16T10:58:52.259Z,44.25
2023-03-16T11:01:32.099Z,41.15
2023-03-16T11:04:00.234Z,44.13
2023-03-16T11:06:33.449Z,46.67
2023-03-16T11:09:10.358Z,41.30
2023-03-16T11:11:38.384Z,43.53
2023-03-16T11:14:14.149Z,46.90
2023-03-16T11:17:04.297Z,48.08
2023-03-16T11:19:41.644Z,57.40
2023-03-16T11:22:16.524Z,56.80
2023-03-16T11:25:03.088Z,56.67
2023-03-16T11:27:36.968Z,56.35
2023-03-16T11:30:29.240Z,52.42
2023-03-16T11:33:00.681Z,53.33
2023-03-16T11:35:38.428Z,51.08
2023-03-16T11:38:16.864Z,55.25
2023-03-16T11:41:05.888Z,60.67
2023-03-16T11:46:17.538Z,45.88
2023-03-16T11:48:46.384Z,41.28
2023-03-16T11:51:26.052Z,39.80
2023-03-16T11:54:14.588Z,38.10
2023-03-16T11:57:00.024Z,35.53
2023-03-16T12:00:01.035Z,33.20
2023-03-16T12:02:48.516Z,33.95
2023-03-16T12:05:44.352Z,35.25
2023-03-16T12:08:35.219Z,31.27
2023-03-16T12:14:03.701Z,34.30
2023-03-16T12:17:13.641Z,25.77
2023-03-16T12:19:52.399Z,32.38
2023-03-16T12:22:33.008Z,29.17
2023-03-16T12:25:03.474Z,32.97
2023-03-16T12:27:34.854Z,24.80
2023-03-16T12:30:12.982Z,29.10
2023-03-16T12:32:55.833Z,28.95
2023-03-16T12:35:47.077Z,22.75
2023-03-16T12:38:50.223Z,25.05
2023-03-16T12:41:33.939Z,26.45
2023-03-16T12:44:10.922Z,23.70
2023-03-16T12:46:43.233Z,25.53
2023-03-16T12:49:11.848Z,21.52
2023-03-16T12:51:44.030Z,26.30
2023-03-16T12:56:54.246Z,25.95
2023-03-16T12:59:24.286Z,19.65
2023-03-16T13:02:06.869Z,17.65
2023-03-16T13:04:41.764Z,23.05
2023-03-16T13:07:22.787Z,20.70
2023-03-16T13:09:57.736Z,21.35
2023-03-16T13:12:37.024Z,18.92
2023-03-16T13:15:20.284Z,19.10
2023-03-16T13:18:02.525Z,21.13
2023-03-16T13:20:34.231Z,20.27
2023-03-16T13:23:18.408Z,21.48
2023-03-16T13:26:01.790Z,19.50
2023-03-16T13:28:36.131Z,21.20
2023-03-16T13:31:19.674Z,19.23
2023-03-16T13:33:48.535Z,21.60
2023-03-16T13:36:21.114Z,21.98
2023-03-16T13:39:20.960Z,21.90
2023-03-16T13:42:17.933Z,20.20
2023-03-16T13:44:47.630Z,15.38
2023-03-16T13:47:19.793Z,19.55
2023-03-16T13:49:58.487Z,21.98
2023-03-16T13:52:32.308Z,23.17
2023-03-16T13:55:02.640Z,27.25
2023-03-16T13:57:36.798Z,21.77
2023-03-16T14:00:08.258Z,26.52
2023-03-16T14:02:43.923Z,23.90
2023-03-16T14:05:26.249Z,22.02
2023-03-16T14:07:55.533Z,32.60
2023-03-16T14:10:26.747Z,29.00
2023-03-16T14:13:10.103Z,24.73
2023-03-16T14:15:38.838Z,24.55
2023-03-16T14:18:33.824Z,23.08
2023-03-16T14:21:07.212Z,19.35
2023-03-16T14:23:41.093Z,30.58
2023-03-16T14:26:15.283Z,27.40
2023-03-16T14:29:02.847Z,23.20
2023-03-16T14:31:39.883Z,18.90
2023-03-16T14:34:30.324Z,20.00
2023-03-16T14:37:12.641Z,18.88
2023-03-16T14:39:41.750Z,19.77
2023-03-16T14:42:30.772Z,17.25
2023-03-16T14:45:07.696Z,17.50
2023-03-16T14:47:43.579Z,21.85
2023-03-16T14:50:18.851Z,21.98
2023-03-16T14:52:50.676Z,22.92
2023-03-16T14:55:20.867Z,19.85
2023-03-16T14:57:51.554Z,22.13
2023-03-16T15:00:21.924Z,21.40
2023-03-16T15:02:59.391Z,23.35
2023-03-16T15:05:37.222Z,18.17
2023-03-16T15:08:11.789Z,20.92
2023-03-16T15:10:45.188Z,20.75
2023-03-16T15:13:53.043Z,24.05
2023-03-16T15:16:23.281Z,23.33
2023-03-16T15:18:52.067Z,25.88
2023-03-16T15:21:29.754Z,25.90
2023-03-16T15:24:02.229Z,21.50
2023-03-16T15:26:30.786Z,26.58
2023-03-16T15:28:58.769Z,53.50
2023-03-16T15:31:26.834Z,22.67
2023-03-16T15:33:54.386Z,23.65
2023-03-16T15:36:22.828Z,20.63
2023-03-16T15:38:53.874Z,22.10
2023-03-16T15:41:21.566Z,20.23
2023-03-16T15:43:53.204Z,17.63
2023-03-16T15:46:21.356Z,17.52
2023-03-16T15:48:48.921Z,18.55
2023-03-16T15:51:29.047Z,17.23
2023-03-16T15:54:07.065Z,18.70
2023-03-16T15:56:52.788Z,16.85
2023-03-16T15:59:28.925Z,18.70
2023-03-16T16:01:57.844Z,17.73
2023-03-16T16:04:26.174Z,16.92
2023-03-16T16:06:57.913Z,18.15
2023-03-16T16:09:25.950Z,16.40
2023-03-16T16:11:53.568Z,17.58
2023-03-16T16:14:25.938Z,16.42
2023-03-16T16:16:54.503Z,18.33
2023-03-16T16:19:22.209Z,17.73
2023-03-16T16:21:55.066Z,17.13
2023-03-16T16:24:23.573Z,16.80
2023-03-16T16:26:54.714Z,24.80
2023-03-16T16:29:26.793Z,24.20
2023-03-16T16:31:55.418Z,17.27
2023-03-16T16:34:25.744Z,18.98
2023-03-16T16:36:55.498Z,16.60
2023-03-16T16:39:24.271Z,16.17
2023-03-16T16:41:56.485Z,18.48
2023-03-16T16:44:28.811Z,16.83
2023-03-16T16:46:59.814Z,21.30
2023-03-16T16:49:30.721Z,18.85
2023-03-16T16:51:59.159Z,20.20
2023-03-16T16:54:31.348Z,20.00
2023-03-16T16:57:00.714Z,21.35
2023-03-16T16:59:36.943Z,24.13
2023-03-16T17:02:22.243Z,22.17
2023-03-16T17:04:53.745Z,22.83
2023-03-16T17:09:53.864Z,19.15
2023-03-16T17:12:23.549Z,23.55
2023-03-16T17:17:22.401Z,27.02
2023-03-16T17:19:52.273Z,26.48
2023-03-16T17:22:25.218Z,26.05
2023-03-16T17:24:57.542Z,25.38
2023-03-16T17:27:31.505Z,20.67
2023-03-16T17:29:59.103Z,24.85
2023-03-16T17:32:27.558Z,22.83
2023-03-16T17:34:55.911Z,21.30
2023-03-16T17:37:23.463Z,22.98
2023-03-16T17:39:52.098Z,21.10
2023-03-16T17:42:23.063Z,21.77
2023-03-16T17:44:53.343Z,19.40
2023-03-16T17:47:23.540Z,20.05
2023-03-16T17:49:51.959Z,21.85
2023-03-16T17:52:23.785Z,19.17
2023-03-16T17:54:54.220Z,21.00
2023-03-16T17:57:40.157Z,21.25
2023-03-16T18:00:30.176Z,26.70
2023-03-16T18:03:03.707Z,21.67
2023-03-16T18:05:34.218Z,21.52
2023-03-16T18:08:14.268Z,23.27
2023-03-16T18:10:46.886Z,27.30
2023-03-16T18:16:00.509Z,22.13
2023-03-16T18:18:31.700Z,25.70
2023-03-16T18:21:01.937Z,20.83
2023-03-16T18:23:32.463Z,26.08
2023-03-16T18:26:03.452Z,27.05
2023-03-16T18:28:31.599Z,25.17
2023-03-16T18:31:00.244Z,22.02
2023-03-16T18:33:34.725Z,25.27
2023-03-16T18:36:06.829Z,24.08
2023-03-16T18:38:38.458Z,25.50
2023-03-16T18:41:22.857Z,21.58
2023-03-16T18:43:53.573Z,18.75
2023-03-16T18:46:34.404Z,19.63
2023-03-16T18:49:11.162Z,21.00
2023-03-16T18:51:39.171Z,16.13
2023-03-16T18:54:21.067Z,17.90
2023-03-16T18:56:49.676Z,16.70
2023-03-16T18:59:17.677Z,15.95
2023-03-16T19:01:46.313Z,18.98
2023-03-16T19:04:26.033Z,18.37
2023-03-16T19:06:55.338Z,18.67
2023-03-16T19:09:29.068Z,21.35
2023-03-16T19:11:59.845Z,19.52
2023-03-16T19:14:31.974Z,19.80
2023-03-16T19:17:05.105Z,17.83
2023-03-16T19:19:33.047Z,23.90
2023-03-16T19:22:12.783Z,22.15
2023-03-16T19:24:48.222Z,21.00
2023-03-16T19:27:28.029Z,25.55
2023-03-16T19:29:58.784Z,28.23
2023-03-16T19:32:26.620Z,33.70
2023-03-16T19:34:56.693Z,38.08
2023-03-16T19:37:25.921Z,32.50
2023-03-16T19:39:53.540Z,34.05
2023-03-16T19:42:28.747Z,34.60
2023-03-16T19:44:56.877Z,29.70
2023-03-16T19:47:34.915Z,33.72
2023-03-16T19:50:06.262Z,34.55
2023-03-16T19:52:34.046Z,28.77
2023-03-16T19:55:01.803Z,27.30
2023-03-16T19:57:29.812Z,27.65
2023-03-16T20:00:06.682Z,27.10
2023-03-16T20:02:42.930Z,30.15
2023-03-16T20:05:17.672Z,28.30
2023-03-16T20:07:45.713Z,29.75
2023-03-16T20:10:18.807Z,35.35
2023-03-16T20:12:48.605Z,32.78
2023-03-16T20:15:20.954Z,30.20
2023-03-16T20:17:50.442Z,35.30
2023-03-16T20:20:26.986Z,35.40
2023-03-16T20:22:58.560Z,28.00
2023-03-16T20:25:30.911Z,27.35
2023-03-16T20:28:02.151Z,30.13
2023-03-16T20:30:31.217Z,32.83
2023-03-16T20:33:00.918Z,30.05
2023-03-16T20:35:31.292Z,31.52
2023-03-16T20:37:59.302Z,29.85
2023-03-16T20:40:27.078Z,28.00
2023-03-16T20:42:56.466Z,26.25
2023-03-16T20:45:30.640Z,33.35
2023-03-16T20:47:58.943Z,27.15
2023-03-16T20:50:29.313Z,25.02
2023-03-16T20:52:57.541Z,26.75
2023-03-16T20:55:29.328Z,25.38
2023-03-16T20:58:11.490Z,28.30
2023-03-16T21:00:40.359Z,25.40
2023-03-16T21:03:23.196Z,28.08
2023-03-16T21:05:54.271Z,26.17
2023-03-16T21:08:22.047Z,27.23
2023-03-16T21:10:53.684Z,26.92
2023-03-16T21:13:31.944Z,27.77
2023-03-16T21:16:03.446Z,27.92
2023-03-16T21:18:34.858Z,32.40
2023-03-16T21:21:03.320Z,30.20
2023-03-16T21:23:31.065Z,38.22
2023-03-16T21:26:01.554Z,39.15
2023-03-16T21:28:34.068Z,43.13
2023-03-16T21:31:03.014Z,41.80
2023-03-16T21:33:37.328Z,45.72
2023-03-16T21:36:12.458Z,50.15
2023-03-16T21:38:41.309Z,47.47
2023-03-16T21:41:09.267Z,42.30
2023-03-16T21:43:36.815Z,42.13
2023-03-16T21:46:06.094Z,39.10
2023-03-16T21:48:37.747Z,38.28
2023-03-16T21:51:18.913Z,36.67
2023-03-16T21:53:48.863Z,37.42
2023-03-16T21:56:20.749Z,40.85
2023-03-16T21:58:49.184Z,33.83
2023-03-16T22:01:30.600Z,36.50
2023-03-16T22:04:05.222Z,32.65
2023-03-16T22:06:33.460Z,34.72
2023-03-16T22:09:02.763Z,33.28
2023-03-16T22:11:31.505Z,31.55
2023-03-16T22:13:59.526Z,32.20
2023-03-16T22:16:31.662Z,34.25
2023-03-16T22:18:59.556Z,33.45
2023-03-16T22:21:41.342Z,32.30
2023-03-16T22:24:14.891Z,34.90
2023-03-16T22:26:42.780Z,31.92
2023-03-16T22:29:25.465Z,31.35
2023-03-16T22:31:57.757Z,32.88
2023-03-16T22:34:25.925Z,35.17
2023-03-16T22:36:54.064Z,30.98
2023-03-16T22:39:21.674Z,32.38
2023-03-16T22:41:49.300Z,30.83
2023-03-16T22:44:23.871Z,33.92
2023-03-16T22:46:51.559Z,31.02
2023-03-16T22:49:27.160Z,34.22
2023-03-16T22:51:57.455Z,30.65
2023-03-16T22:54:28.467Z,33.53
2023-03-16T22:56:56.960Z,32.22
2023-03-16T22:59:26.552Z,30.73
2023-03-16T23:04:25.887Z,35.05
2023-03-16T23:06:54.705Z,28.77
2023-03-16T23:09:22.663Z,28.58
2023-03-16T23:11:56.579Z,26.05
2023-03-16T23:14:29.257Z,24.60
2023-03-16T23:16:57.342Z,25.20
2023-03-16T23:19:32.984Z,26.90
2023-03-16T23:22:06.950Z,25.63
2023-03-16T23:24:36.189Z,26.40
2023-03-16T23:32:04.605Z,26.48
2023-03-16T23:34:33.386Z,32.60
2023-03-16T23:37:00.785Z,29.80
2023-03-16T23:39:28.986Z,34.67
2023-03-16T23:41:57.370Z,33.33
2023-03-16T23:44:27.615Z,29.45
2023-03-16T23:46:56.909Z,31.95
2023-03-16T23:49:27.689Z,28.50
2023-03-16T23:51:57.844Z,27.20
2023-03-16T23:56:55.660Z,27.23
2023-03-16T23:59:23.975Z,26.25
